Time;durP1;ratioP1;P1;durP2;ratioP2;P2;SDS_P1;SDS_P2;PMS_P1;PMS_P2;Temp;Humidity;BMP_temperature;BMP_pressure;BME280_temperature;BME280_humidity;BME280_pressure;Samples;Min_cycle;Max_cycle;Signal;HPM_P1;HPM_P2
2022/07/17 00:01:02;;;;;;;9.02;6.03;;;;;;;;;;6326293;28;20123;-70
2022/07/17 00:04:04;;;;;;;10.27;6.80;;;;;;;;;;6328872;28;20468;-70
2022/07/17 00:07:06;;;;;;;11.33;6.43;;;;;;;;;;6331743;28;20224;-70
2022/07/17 00:10:08;;;;;;;10.15;7.57;;;;;;;;;;6332149;28;20056;-70
2022/07/17 00:13:11;;;;;;;9.88;7.50;;;;;;;;;;6330755;28;20040;-70
2022/07/17 00:16:14;;;;;;;11.10;7.55;;;;;;;;;;6328772;28;20329;-70
2022/07/17 00:19:15;;;;;;;;;;;;;;;;;;6334452;28;20058;-70
2022/07/17 00:22:17;;;;;;;10.73;7.82;;;;;;;;;;6330265;28;19924;-72
2022/07/17 00:25:19;;;;;;;11.25;7.57;;;;;;;;;;6329648;28;20339;-71
2022/07/17 00:28:20;;;;;;;12.85;7.90;;;;;;;;;;6335930;28;20052;-71
2022/07/17 00:31:23;;;;;;;10.63;7.60;;;;;;;;;;6335452;28;20212;-69
2022/07/17 00:34:25;;;;;;;13.18;8.27;;;;;;;;;;6330383;28;20113;-69
2022/07/17 00:37:26;;;;;;;11.18;9.10;;;;;;;;;;6329601;28;20059;-70
2022/07/17 00:40:28;;;;;;;9.30;8.35;;;;;;;;;;6331549;28;20389;-71
2022/07/17 00:43:30;;;;;;;12.10;9.07;;;;;;;;;;6331284;28;20044;-71
2022/07/17 00:46:33;;;;;;;11.50;9.05;;;;;;;;;;6333133;28;20319;-70
2022/07/17 00:49:34;;;;;;;11.63;8.80;;;;;;;;;;6331895;28;20293;-71
2022/07/17 00:52:36;;;;;;;10.63;8.65;;;;;;;;;;6329616;28;20051;-75
2022/07/17 00:55:38;;;;;;;10.10;8.60;;;;;;;;;;6329093;28;20051;-73
2022/07/17 00:58:40;;;;;;;8.85;7.78;;;;;;;;;;6334391;28;20047;-69
2022/07/17 01:01:43;;;;;;;13.70;8.40;;;;;;;;;;6331600;28;20055;-70
2022/07/17 01:04:44;;;;;;;;;;;;;;;;;;6331878;28;20044;-70
2022/07/17 01:07:46;;;;;;;11.77;6.57;;;;;;;;;;6332204;28;19957;-71
2022/07/17 01:10:48;;;;;;;8.93;6.63;;;;;;;;;;6331037;28;20055;-71
2022/07/17 01:13:50;;;;;;;7.53;6.40;;;;;;;;;;6333457;28;20327;-71
2022/07/17 01:16:53;;;;;;;7.28;6.25;;;;;;;;;;6332876;28;20044;-70
2022/07/17 01:19:55;;;;;;;8.95;6.38;;;;;;;;;;6332484;28;20051;-75
2022/07/17 01:22:58;;;;;;;8.45;6.53;;;;;;;;;;6331504;28;20048;-70
2022/07/17 01:26:00;;;;;;;10.98;6.35;;;;;;;;;;6330982;28;21175;-70
2022/07/17 01:29:02;;;;;;;8.25;5.88;;;;;;;;;;6330146;28;20293;-72
2022/07/17 01:32:04;;;;;;;14.05;6.20;;;;;;;;;;6330226;28;20395;-71
2022/07/17 01:35:06;;;;;;;7.05;5.78;;;;;;;;;;6329719;28;20105;-70
2022/07/17 01:38:10;;;;;;;10.88;5.78;;;;;;;;;;6332718;28;20286;-71
2022/07/17 01:41:11;;;;;;;9.93;6.65;;;;;;;;;;6332250;28;20044;-70
2022/07/17 01:44:13;;;;;;;6.57;5.25;;;;;;;;;;6333550;28;20335;-71
2022/07/17 01:47:15;;;;;;;6.72;5.47;;;;;;;;;;6332874;28;20074;-71
2022/07/17 01:50:17;;;;;;;7.07;5.28;;;;;;;;;;6331167;28;20107;-73
2022/07/17 01:53:20;;;;;;;8.13;5.30;;;;;;;;;;6328855;28;20064;-70
2022/07/17 01:56:22;;;;;;;6.75;5.43;;;;;;;;;;6333280;28;20052;-71
2022/07/17 01:59:24;;;;;;;7.43;5.25;;;;;;;;;;6337445;28;20083;-70
2022/07/17 02:02:26;;;;;;;7.50;5.00;;;;;;;;;;6337440;28;20048;-71
2022/07/17 02:05:28;;;;;;;8.13;5.43;;;;;;;;;;6339360;28;20058;-73
2022/07/17 02:08:31;;;;;;;6.00;4.53;;;;;;;;;;6335676;28;20043;-70
2022/07/17 02:11:33;;;;;;;;;;;;;;;;;;6337694;28;20047;-73
2022/07/17 02:14:35;;;;;;;6.85;4.68;;;;;;;;;;6332837;28;20188;-70
2022/07/17 02:17:37;;;;;;;5.22;4.43;;;;;;;;;;6322266;28;20097;-71
2022/07/17 02:20:38;;;;;;;5.90;4.18;;;;;;;;;;6330543;28;20119;-72
2022/07/17 02:23:41;;;;;;;7.45;4.72;;;;;;;;;;6331078;28;20205;-70
2022/07/17 02:26:43;;;;;;;;;;;;;;;;;;6328499;28;20065;-71
2022/07/17 02:29:44;;;;;;;4.70;3.70;;;;;;;;;;6322779;28;19965;-75
2022/07/17 02:32:46;;;;;;;4.53;3.72;;;;;;;;;;6336592;28;20050;-70
2022/07/17 02:35:48;;;;;;;5.32;3.80;;;;;;;;;;6333819;28;20234;-71
2022/07/17 02:38:51;;;;;;;6.88;4.00;;;;;;;;;;6339131;28;20365;-71
2022/07/17 02:41:53;;;;;;;7.20;3.80;;;;;;;;;;6330260;28;20108;-71
2022/07/17 02:44:55;;;;;;;5.97;4.07;;;;;;;;;;6333485;28;20299;-70
2022/07/17 02:47:57;;;;;;;5.55;3.63;;;;;;;;;;6337567;28;20047;-73
2022/07/17 02:50:59;;;;;;;6.43;3.63;;;;;;;;;;6333611;28;20087;-70
2022/07/17 02:54:02;;;;;;;5.32;3.50;;;;;;;;;;6336708;28;20117;-70
2022/07/17 02:57:04;;;;;;;;;;;;;;;;;;6333191;28;20060;-72
2022/07/17 03:00:07;;;;;;;4.55;3.17;;;;;;;;;;6339797;28;19923;-70
2022/07/17 03:03:09;;;;;;;5.50;3.67;;;;;;;;;;6337016;28;20249;-70
2022/07/17 03:06:10;;;;;;;8.73;3.60;;;;;;;;;;6333251;28;20128;-71
2022/07/17 03:09:13;;;;;;;6.95;3.78;;;;;;;;;;6334292;28;20055;-70
2022/07/17 03:12:15;;;;;;;;;;;;;;;;;;6336877;28;20268;-70
2022/07/17 03:15:16;;;;;;;7.60;3.70;;;;;;;;;;6333685;28;19924;-71
2022/07/17 03:18:18;;;;;;;6.28;3.80;;;;;;;;;;6330213;28;20396;-70
2022/07/17 03:21:20;;;;;;;4.95;3.20;;;;;;;;;;6328988;28;20039;-70
2022/07/17 03:24:23;;;;;;;6.07;3.72;;;;;;;;;;6331365;28;20056;-71
2022/07/17 03:27:24;;;;;;;6.75;3.58;;;;;;;;;;6332647;28;20265;-70
2022/07/17 03:30:26;;;;;;;4.53;3.45;;;;;;;;;;6334188;28;20059;-70
2022/07/17 03:33:28;;;;;;;7.28;3.58;;;;;;;;;;6333321;28;20040;-71
2022/07/17 03:36:30;;;;;;;4.07;3.15;;;;;;;;;;6331662;28;20048;-71
2022/07/17 03:39:33;;;;;;;3.70;2.95;;;;;;;;;;6335098;28;20051;-70
2022/07/17 03:42:34;;;;;;;;;;;;;;;;;;6332816;28;20051;-70
2022/07/17 03:45:36;;;;;;;4.22;3.30;;;;;;;;;;6332582;28;20253;-70
2022/07/17 03:48:38;;;;;;;5.28;3.38;;;;;;;;;;6332867;28;20047;-70
2022/07/17 03:51:39;;;;;;;5.93;3.30;;;;;;;;;;6331424;28;20055;-70
2022/07/17 03:54:42;;;;;;;3.58;3.10;;;;;;;;;;6335508;28;20358;-81
2022/07/17 03:57:44;;;;;;;6.50;3.30;;;;;;;;;;6331297;28;20237;-70
2022/07/17 04:00:46;;;;;;;6.40;3.45;;;;;;;;;;6327011;28;20341;-72
2022/07/17 04:03:47;;;;;;;3.50;3.00;;;;;;;;;;6330646;28;20036;-71
2022/07/17 04:06:49;;;;;;;5.13;3.25;;;;;;;;;;6327640;28;20354;-76
2022/07/17 04:09:52;;;;;;;6.50;4.10;;;;;;;;;;6330293;28;20048;-70
2022/07/17 04:12:54;;;;;;;5.95;3.58;;;;;;;;;;6330589;28;20056;-70
2022/07/17 04:15:56;;;;;;;4.15;3.05;;;;;;;;;;6326582;28;20172;-73
2022/07/17 04:18:58;;;;;;;4.60;3.72;;;;;;;;;;6328447;28;20420;-73
2022/07/17 04:22:00;;;;;;;5.45;4.05;;;;;;;;;;6326959;28;20071;-74
2022/07/17 04:25:03;;;;;;;4.35;3.33;;;;;;;;;;6329407;28;20051;-71
2022/07/17 04:28:04;;;;;;;4.75;3.42;;;;;;;;;;6333478;28;20052;-71
2022/07/17 04:31:06;;;;;;;4.05;3.35;;;;;;;;;;6328232;28;20052;-71
2022/07/17 04:34:08;;;;;;;7.38;4.00;;;;;;;;;;6327023;28;20137;-71
2022/07/17 04:37:09;;;;;;;5.15;3.40;;;;;;;;;;6328068;28;20109;-75
2022/07/17 04:40:13;;;;;;;6.30;3.17;;;;;;;;;;6330973;28;20109;-71
2022/07/17 04:43:14;;;;;;;9.65;4.38;;;;;;;;;;6332189;28;20055;-71
2022/07/17 04:46:16;;;;;;;4.57;3.70;;;;;;;;;;6329364;28;20362;-72
2022/07/17 04:49:18;;;;;;;5.43;4.30;;;;;;;;;;6330565;28;20094;-71
2022/07/17 04:52:19;;;;;;;5.15;3.85;;;;;;;;;;6332058;28;20244;-74
2022/07/17 04:55:22;;;;;;;9.80;4.88;;;;;;;;;;6330564;28;20105;-71
2022/07/17 04:58:24;;;;;;;7.70;5.03;;;;;;;;;;6328832;28;20056;-71
2022/07/17 05:01:26;;;;;;;6.43;4.68;;;;;;;;;;6328888;28;20090;-71
2022/07/17 05:04:27;;;;;;;6.85;5.30;;;;;;;;;;6327523;28;20342;-71
2022/07/17 05:07:29;;;;;;;7.53;5.38;;;;;;;;;;6331116;28;20562;-83
2022/07/17 05:10:32;;;;;;;8.27;4.80;;;;;;;;;;6327027;28;20143;-71
2022/07/17 05:13:34;;;;;;;7.47;5.97;;;;;;;;;;6326119;28;20243;-79
2022/07/17 05:16:36;;;;;;;7.78;6.03;;;;;;;;;;6328197;28;20105;-70
2022/07/17 05:19:37;;;;;;;9.48;6.35;;;;;;;;;;6328363;28;20043;-71
2022/07/17 05:22:39;;;;;;;12.27;7.85;;;;;;;;;;6325205;28;20343;-72
2022/07/17 05:25:43;;;;;;;11.80;8.27;;;;;;;;;;6329301;28;20098;-70
2022/07/17 05:28:45;;;;;;;12.25;8.52;;;;;;;;;;6326204;28;20067;-71
2022/07/17 05:31:47;;;;;;;10.38;8.57;;;;;;;;;;6333376;28;20044;-74
2022/07/17 05:34:48;;;;;;;9.30;8.23;;;;;;;;;;6333570;28;20052;-72
2022/07/17 05:37:50;;;;;;;11.40;8.32;;;;;;;;;;6329182;28;20331;-72
2022/07/17 05:40:53;;;;;;;8.63;7.30;;;;;;;;;;6339389;28;20059;-71
2022/07/17 05:43:55;;;;;;;11.25;8.68;;;;;;;;;;6332598;28;20097;-81
2022/07/17 05:46:56;;;;;;;9.15;8.13;;;;;;;;;;6332814;28;20266;-71
2022/07/17 05:49:58;;;;;;;12.02;8.32;;;;;;;;;;6330685;28;20067;-73
2022/07/17 05:53:00;;;;;;;9.60;7.30;;;;;;;;;;6332690;28;20048;-81
2022/07/17 05:56:03;;;;;;;9.65;7.90;;;;;;;;;;6333595;28;20109;-75
2022/07/17 05:59:05;;;;;;;10.48;7.63;;;;;;;;;;6330389;28;20044;-73
2022/07/17 06:02:06;;;;;;;9.88;8.25;;;;;;;;;;6333974;28;20323;-72
2022/07/17 06:05:08;;;;;;;9.15;7.60;;;;;;;;;;6334572;28;20055;-71
2022/07/17 06:08:10;;;;;;;14.18;9.35;;;;;;;;;;6332231;28;20059;-71
2022/07/17 06:11:13;;;;;;;9.27;7.18;;;;;;;;;;6330598;28;20047;-78
2022/07/17 06:14:15;;;;;;;7.93;6.63;;;;;;;;;;6331191;28;20380;-81
2022/07/17 06:17:16;;;;;;;7.28;6.57;;;;;;;;;;6334355;28;20040;-74
2022/07/17 06:20:19;;;;;;;15.43;8.38;;;;;;;;;;6328651;28;20051;-80
2022/07/17 06:23:20;;;;;;;9.82;7.45;;;;;;;;;;6331681;28;20048;-74
2022/07/17 06:26:23;;;;;;;9.68;6.80;;;;;;;;;;6331386;28;20059;-73
2022/07/17 06:29:25;;;;;;;;;;;;;;;;;;6332532;28;20051;-73
2022/07/17 06:32:27;;;;;;;9.85;6.53;;;;;;;;;;6330255;28;19939;-74
2022/07/17 06:35:30;;;;;;;8.68;7.57;;;;;;;;;;6332371;28;20055;-73
2022/07/17 06:38:34;;;;;;;9.30;7.10;;;;;;;;;;6337336;28;20270;-74
2022/07/17 06:41:37;;;;;;;9.00;6.38;;;;;;;;;;6326618;28;20051;-81
2022/07/17 06:44:39;;;;;;;8.77;6.97;;;;;;;;;;6337763;28;20052;-76
2022/07/17 06:47:40;;;;;;;8.45;7.50;;;;;;;;;;6330313;28;20052;-74
2022/07/17 06:50:42;;;;;;;11.25;6.53;;;;;;;;;;6329484;28;20075;-81
2022/07/17 06:53:44;;;;;;;13.30;7.05;;;;;;;;;;6330554;28;20144;-76
2022/07/17 06:56:48;;;;;;;8.07;6.82;;;;;;;;;;6331174;28;20052;-74
2022/07/17 06:59:49;;;;;;;9.18;6.75;;;;;;;;;;6333325;28;20040;-80
2022/07/17 07:02:51;;;;;;;12.65;6.85;;;;;;;;;;6329695;28;20044;-73
2022/07/17 07:05:54;;;;;;;7.28;6.00;;;;;;;;;;6332567;28;20089;-73
2022/07/17 07:08:56;;;;;;;9.23;6.32;;;;;;;;;;6330881;28;20058;-73
2022/07/17 07:11:59;;;;;;;8.25;6.10;;;;;;;;;;6328925;28;20059;-72
2022/07/17 07:15:00;;;;;;;8.68;6.28;;;;;;;;;;6331565;28;20062;-73
2022/07/17 07:18:02;;;;;;;6.35;5.75;;;;;;;;;;6331472;28;20054;-73
2022/07/17 07:21:04;;;;;;;7.05;6.07;;;;;;;;;;6327662;28;20064;-73
2022/07/17 07:24:06;;;;;;;7.68;5.10;;;;;;;;;;6328227;28;20235;-72
2022/07/17 07:27:09;;;;;;;6.80;5.32;;;;;;;;;;6332812;28;20366;-75
2022/07/17 07:30:10;;;;;;;;;;;;;;;;;;6331254;28;20059;-74
2022/07/17 07:33:12;;;;;;;7.50;6.22;;;;;;;;;;6325744;28;20203;-78
2022/07/17 07:36:14;;;;;;;8.45;5.22;;;;;;;;;;6330201;28;20043;-77
2022/07/17 07:39:15;;;;;;;14.98;5.15;;;;;;;;;;6330394;28;20089;-76
2022/07/17 07:42:18;;;;;;;9.98;5.00;;;;;;;;;;6333684;28;20044;-76
2022/07/17 07:45:20;;;;;;;;;;;;;;;;;;6328374;28;20121;-77
2022/07/17 07:48:21;;;;;;;6.93;4.80;;;;;;;;;;6333214;28;20110;-82
2022/07/17 07:51:24;;;;;;;7.57;4.55;;;;;;;;;;6330144;28;20055;-76
2022/07/17 07:54:25;;;;;;;5.72;4.30;;;;;;;;;;6330800;28;20342;-77
2022/07/17 07:57:28;;;;;;;5.57;3.90;;;;;;;;;;6330869;28;20052;-77
2022/07/17 08:00:30;;;;;;;;;;;;;;;;;;6327134;28;20036;-88
2022/07/17 08:03:31;;;;;;;5.78;3.83;;;;;;;;;;6329627;28;20218;-77
2022/07/17 08:06:33;;;;;;;6.25;3.70;;;;;;;;;;6329861;28;20369;-78
2022/07/17 08:09:35;;;;;;;13.50;4.50;;;;;;;;;;6333181;28;20056;-81
2022/07/17 08:12:38;;;;;;;7.20;3.90;;;;;;;;;;6329232;28;20048;-82
2022/07/17 08:15:39;;;;;;;;;;;;;;;;;;6327355;28;20056;-82
2022/07/17 08:18:41;;;;;;;7.22;4.05;;;;;;;;;;6327735;28;20009;-78
2022/07/17 08:21:42;;;;;;;5.38;3.50;;;;;;;;;;6327243;28;20109;-77
2022/07/17 08:24:44;;;;;;;9.15;4.15;;;;;;;;;;6327151;28;20044;-74
2022/07/17 08:27:47;;;;;;;15.02;7.90;;;;;;;;;;6325612;28;20049;-78
2022/07/17 08:30:49;;;;;;;9.20;5.28;;;;;;;;;;6326957;28;20277;-78
2022/07/17 08:33:51;;;;;;;12.20;6.27;;;;;;;;;;6326797;28;20273;-78
2022/07/17 08:36:52;;;;;;;10.82;5.20;;;;;;;;;;6326696;28;20219;-77
2022/07/17 08:39:54;;;;;;;8.95;4.05;;;;;;;;;;6334239;28;20052;-78
2022/07/17 08:42:58;;;;;;;3.83;3.13;;;;;;;;;;6326116;28;20087;-79
2022/07/17 08:46:00;;;;;;;3.72;3.10;;;;;;;;;;6329729;28;20316;-79
2022/07/17 08:49:03;;;;;;;3.55;3.05;;;;;;;;;;6329886;28;20089;-75
2022/07/17 08:52:05;;;;;;;4.40;3.10;;;;;;;;;;6326383;28;20047;-77
2022/07/17 08:55:10;;;;;;;4.07;3.20;;;;;;;;;;6324535;28;20055;-72
2022/07/17 08:58:16;;;;;;;4.38;3.47;;;;;;;;;;6331216;28;20111;-74
2022/07/17 09:01:19;;;;;;;11.65;3.28;;;;;;;;;;6329632;28;20261;-77
2022/07/17 09:04:21;;;;;;;4.63;3.17;;;;;;;;;;6330483;28;20265;-76
2022/07/17 09:07:22;;;;;;;5.63;3.30;;;;;;;;;;6333119;28;20059;-77
2022/07/17 09:10:34;;;;;;;7.43;3.42;;;;;;;;;;6328460;28;20052;-81
2022/07/17 09:13:37;;;;;;;4.75;3.20;;;;;;;;;;6331879;28;20047;-80
2022/07/17 09:16:51;;;;;;;6.80;3.08;;;;;;;;;;6329387;28;20347;-80
2022/07/17 09:19:53;;;;;;;5.75;3.15;;;;;;;;;;6328413;28;20051;-74
2022/07/17 09:22:59;;;;;;;4.53;3.50;;;;;;;;;;6327303;28;20061;-74
2022/07/17 09:26:00;;;;;;;8.77;3.00;;;;;;;;;;6327686;28;20343;-74
2022/07/17 09:29:04;;;;;;;5.00;2.93;;;;;;;;;;6324034;28;20188;-74
2022/07/17 09:32:06;;;;;;;4.72;3.03;;;;;;;;;;6324767;28;20059;-76
2022/07/17 09:35:09;;;;;;;4.45;3.20;;;;;;;;;;6326805;28;20064;-75
2022/07/17 09:38:11;;;;;;;5.55;3.33;;;;;;;;;;6330702;28;20060;-74
2022/07/17 09:41:15;;;;;;;6.17;3.17;;;;;;;;;;6327174;28;20052;-74
2022/07/17 09:44:18;;;;;;;8.38;3.33;;;;;;;;;;6328050;28;20492;-74
2022/07/17 09:47:20;;;;;;;9.82;3.55;;;;;;;;;;6328630;28;20323;-73
2022/07/17 09:50:23;;;;;;;6.75;3.55;;;;;;;;;;6322400;28;20052;-77
2022/07/17 09:53:25;;;;;;;7.13;3.90;;;;;;;;;;6329975;28;20101;-75
2022/07/17 09:56:28;;;;;;;4.95;3.20;;;;;;;;;;6324433;28;20271;-74
2022/07/17 09:59:36;;;;;;;4.28;3.45;;;;;;;;;;6327591;28;20070;-78
2022/07/17 10:02:37;;;;;;;7.85;3.83;;;;;;;;;;6325532;28;20090;-74
2022/07/17 10:05:39;;;;;;;9.00;3.40;;;;;;;;;;6326048;28;20059;-74
2022/07/17 10:08:41;;;;;;;5.30;3.45;;;;;;;;;;6314714;28;20079;-79
2022/07/17 10:11:42;;;;;;;4.75;3.30;;;;;;;;;;6311929;28;20277;-75
2022/07/17 10:14:47;;;;;;;5.40;3.22;;;;;;;;;;6315017;28;20052;-78
2022/07/17 10:17:49;;;;;;;6.03;3.33;;;;;;;;;;6318095;28;20081;-75
2022/07/17 10:20:50;;;;;;;5.90;3.50;;;;;;;;;;6324197;28;20217;-76
2022/07/17 10:24:08;;;;;;;5.85;3.47;;;;;;;;;;6324833;28;20052;-75
2022/07/17 10:27:19;;;;;;;7.20;3.45;;;;;;;;;;6318370;28;20327;-75
2022/07/17 10:30:26;;;;;;;4.60;3.55;;;;;;;;;;6318704;28;20059;-74
2022/07/17 10:33:27;;;;;;;9.70;3.47;;;;;;;;;;6317165;28;20059;-72
2022/07/17 10:36:39;;;;;;;6.22;3.30;;;;;;;;;;6309090;28;21262;-73
2022/07/17 10:39:42;;;;;;;7.53;3.63;;;;;;;;;;6309183;28;20234;-75
2022/07/17 10:42:53;;;;;;;4.72;3.97;;;;;;;;;;6307554;28;20326;-76
2022/07/17 10:45:56;;;;;;;6.13;2.97;;;;;;;;;;6304621;28;20044;-76
2022/07/17 10:48:58;;;;;;;4.05;3.55;;;;;;;;;;6305960;28;20059;-75
2022/07/17 10:52:00;;;;;;;5.50;3.60;;;;;;;;;;6308830;28;20048;-82
2022/07/17 10:55:04;;;;;;;7.97;3.90;;;;;;;;;;6308353;28;20064;-74
2022/07/17 10:58:15;;;;;;;4.22;3.60;;;;;;;;;;6303569;28;20102;-79
2022/07/17 11:01:19;;;;;;;3.97;3.58;;;;;;;;;;6308850;28;20052;-74
2022/07/17 11:04:20;;;;;;;7.50;3.63;;;;;;;;;;6310027;28;20049;-79
2022/07/17 11:07:22;;;;;;;4.40;3.60;;;;;;;;;;6303323;28;20060;-78
2022/07/17 11:10:26;;;;;;;4.20;3.42;;;;;;;;;;6304009;28;20334;-73
2022/07/17 11:13:27;;;;;;;4.88;3.72;;;;;;;;;;6312876;28;20096;-78
2022/07/17 11:16:31;;;;;;;4.90;3.50;;;;;;;;;;6313081;28;20073;-72
2022/07/17 11:19:35;;;;;;;7.43;3.60;;;;;;;;;;6315715;28;20273;-73
2022/07/17 11:22:36;;;;;;;9.02;4.40;;;;;;;;;;6316526;28;20085;-81
2022/07/17 11:25:38;;;;;;;6.32;3.55;;;;;;;;;;6317267;28;20420;-75
2022/07/17 11:28:41;;;;;;;4.28;3.65;;;;;;;;;;6314961;28;20044;-74
2022/07/17 11:31:45;;;;;;;6.20;3.42;;;;;;;;;;6316328;28;20059;-75
2022/07/17 11:34:46;;;;;;;7.40;3.60;;;;;;;;;;6316156;28;20067;-73
2022/07/17 11:37:50;;;;;;;3.63;3.30;;;;;;;;;;6316178;28;20088;-79
2022/07/17 11:40:51;;;;;;;17.75;3.40;;;;;;;;;;6318229;28;20147;-77
2022/07/17 11:43:53;;;;;;;4.22;3.80;;;;;;;;;;6317456;28;20051;-76
2022/07/17 11:46:57;;;;;;;5.22;3.95;;;;;;;;;;6317884;28;20195;-75
2022/07/17 11:50:06;;;;;;;6.90;4.00;;;;;;;;;;6317629;28;20052;-75
2022/07/17 11:53:07;;;;;;;4.90;4.40;;;;;;;;;;6318851;28;20334;-74
2022/07/17 11:56:09;;;;;;;4.75;3.60;;;;;;;;;;6317691;28;20137;-77
2022/07/17 11:59:11;;;;;;;5.32;3.67;;;;;;;;;;6315705;28;20315;-71
2022/07/17 12:02:16;;;;;;;7.78;3.75;;;;;;;;;;6320902;28;20055;-76
2022/07/17 12:05:26;;;;;;;4.45;3.78;;;;;;;;;;6326102;28;20044;-71
2022/07/17 12:08:28;;;;;;;6.43;3.35;;;;;;;;;;6307032;28;20103;-73
2022/07/17 12:11:30;;;;;;;4.55;3.33;;;;;;;;;;6315420;28;20052;-77
2022/07/17 12:14:32;;;;;;;3.83;3.20;;;;;;;;;;6302964;28;20736;-73
2022/07/17 12:17:39;;;;;;;;;;;;;;;;;;6304704;28;20044;-77
2022/07/17 12:20:42;;;;;;;3.83;3.40;;;;;;;;;;6306291;28;19920;-72
2022/07/17 12:23:44;;;;;;;5.82;3.40;;;;;;;;;;6304525;28;20052;-72
2022/07/17 12:26:45;;;;;;;;;;;;;;;;;;6310072;28;20079;-71
2022/07/17 12:29:47;;;;;;;4.25;3.38;;;;;;;;;;6312629;28;19924;-72
2022/07/17 12:32:50;;;;;;;5.05;3.55;;;;;;;;;;6304848;28;20048;-70
2022/07/17 12:35:52;;;;;;;6.28;3.53;;;;;;;;;;6307679;28;20048;-71
2022/07/17 12:38:53;;;;;;;3.92;3.53;;;;;;;;;;6305478;28;20134;-76
2022/07/17 12:41:55;;;;;;;4.55;3.00;;;;;;;;;;6302805;28;20322;-78
2022/07/17 12:44:57;;;;;;;4.15;2.97;;;;;;;;;;6304482;28;20116;-77
2022/07/17 12:48:00;;;;;;;6.13;3.00;;;;;;;;;;6306303;28;20243;-77
2022/07/17 12:51:02;;;;;;;3.42;3.13;;;;;;;;;;6299547;28;20376;-73
2022/07/17 12:54:03;;;;;;;3.22;2.88;;;;;;;;;;6288831;28;20056;-74
2022/07/17 12:57:06;;;;;;;5.53;3.08;;;;;;;;;;6301294;28;20076;-72
2022/07/17 13:00:09;;;;;;;5.93;3.08;;;;;;;;;;6307126;28;20080;-72
2022/07/17 13:03:12;;;;;;;3.40;3.10;;;;;;;;;;6318462;28;20500;-71
2022/07/17 13:06:14;;;;;;;5.30;3.97;;;;;;;;;;6313306;28;20052;-78
2022/07/17 13:09:16;;;;;;;4.05;3.00;;;;;;;;;;6312731;28;20051;-71
2022/07/17 13:12:17;;;;;;;3.15;2.85;;;;;;;;;;6313762;28;20114;-75
2022/07/17 13:15:19;;;;;;;4.10;3.10;;;;;;;;;;6309214;28;20315;-71
2022/07/17 13:18:22;;;;;;;5.07;3.15;;;;;;;;;;6312887;28;20059;-71
2022/07/17 13:21:25;;;;;;;6.40;3.00;;;;;;;;;;6310393;28;20433;-71
2022/07/17 13:24:27;;;;;;;3.35;2.95;;;;;;;;;;6315168;28;20052;-71
2022/07/17 13:27:28;;;;;;;5.50;3.80;;;;;;;;;;6320731;28;20048;-71
2022/07/17 13:30:30;;;;;;;4.05;3.13;;;;;;;;;;6314378;28;20044;-71
2022/07/17 13:33:33;;;;;;;5.20;3.72;;;;;;;;;;6314089;28;20059;-75
2022/07/17 13:36:35;;;;;;;4.88;3.70;;;;;;;;;;6313169;28;20052;-71
2022/07/17 13:39:37;;;;;;;4.25;3.40;;;;;;;;;;6312253;28;20044;-71
2022/07/17 13:42:39;;;;;;;3.75;2.97;;;;;;;;;;6311151;28;20095;-73
2022/07/17 13:45:40;;;;;;;3.72;3.40;;;;;;;;;;6313476;28;20238;-72
2022/07/17 13:48:43;;;;;;;5.22;3.30;;;;;;;;;;6313883;28;20052;-71
2022/07/17 13:51:45;;;;;;;6.13;3.78;;;;;;;;;;6314297;28;20071;-77
2022/07/17 13:54:47;;;;;;;6.22;3.28;;;;;;;;;;6319111;28;20060;-72
2022/07/17 13:57:49;;;;;;;;;;;;;;;;;;6317440;28;20044;-72
2022/07/17 14:00:50;;;;;;;5.40;3.45;;;;;;;;;;6315272;28;19999;-73
2022/07/17 14:03:53;;;;;;;4.82;3.38;;;;;;;;;;6319250;28;20485;-72
2022/07/17 14:06:55;;;;;;;5.78;3.55;;;;;;;;;;6314018;28;20735;-74
2022/07/17 14:09:56;;;;;;;;;;;;;;;;;;6314626;28;20043;-75
2022/07/17 14:12:58;;;;;;;5.40;3.25;;;;;;;;;;6314567;28;19936;-74
2022/07/17 14:15:59;;;;;;;;;;;;;;;;;;6315938;28;20063;-73
2022/07/17 14:19:02;;;;;;;4.20;3.28;;;;;;;;;;6313406;28;19917;-73
2022/07/17 14:22:04;;;;;;;5.63;3.53;;;;;;;;;;6314415;28;20090;-72
2022/07/17 14:25:06;;;;;;;6.60;3.78;;;;;;;;;;6319096;28;20097;-74
2022/07/17 14:28:08;;;;;;;3.55;3.03;;;;;;;;;;6314871;28;20055;-72
2022/07/17 14:31:09;;;;;;;;;;;;;;;;;;6308456;28;20055;-75
2022/07/17 14:34:12;;;;;;;3.72;3.40;;;;;;;;;;6314519;28;19932;-70
2022/07/17 14:37:14;;;;;;;3.80;3.50;;;;;;;;;;6308874;28;20051;-75
2022/07/17 14:40:16;;;;;;;;;;;;;;;;;;6315040;28;20044;-75
2022/07/17 14:43:17;;;;;;;3.45;3.15;;;;;;;;;;6315573;28;19931;-75
2022/07/17 14:46:19;;;;;;;3.65;3.35;;;;;;;;;;6310648;28;20267;-72
2022/07/17 14:49:22;;;;;;;;;;;;;;;;;;6312684;28;20063;-73
2022/07/17 14:52:23;;;;;;;3.97;3.67;;;;;;;;;;6312435;28;19920;-71
2022/07/17 14:55:25;;;;;;;3.45;3.15;;;;;;;;;;6311271;28;20051;-73
2022/07/17 14:58:27;;;;;;;5.05;3.58;;;;;;;;;;6311949;28;20105;-71
2022/07/17 15:01:29;;;;;;;4.70;3.42;;;;;;;;;;6311215;28;20052;-76
2022/07/17 15:04:32;;;;;;;5.90;4.05;;;;;;;;;;6314139;28;20236;-71
2022/07/17 15:07:34;;;;;;;5.25;3.58;;;;;;;;;;6307817;28;20212;-72
2022/07/17 15:10:35;;;;;;;6.32;3.55;;;;;;;;;;6311798;28;20051;-71
2022/07/17 15:13:37;;;;;;;5.00;3.85;;;;;;;;;;6310704;28;20089;-73
2022/07/17 15:16:39;;;;;;;7.03;3.92;;;;;;;;;;6312696;28;22077;-73
2022/07/17 15:19:42;;;;;;;3.90;3.45;;;;;;;;;;6309981;28;20255;-71
2022/07/17 15:22:43;;;;;;;6.55;3.80;;;;;;;;;;6312764;28;20052;-72
2022/07/17 15:25:45;;;;;;;7.53;3.92;;;;;;;;;;6312011;28;20339;-71
2022/07/17 15:28:47;;;;;;;5.43;3.80;;;;;;;;;;6312917;28;20047;-71
2022/07/17 15:31:48;;;;;;;4.57;4.05;;;;;;;;;;6312262;28;20032;-71
2022/07/17 15:34:51;;;;;;;6.65;3.97;;;;;;;;;;6309392;28;20056;-74
2022/07/17 15:37:54;;;;;;;5.35;3.88;;;;;;;;;;6309109;28;20052;-70
2022/07/17 15:40:55;;;;;;;5.15;3.88;;;;;;;;;;6312491;28;20071;-72
2022/07/17 15:43:57;;;;;;;4.93;4.18;;;;;;;;;;6307812;28;20064;-70
2022/07/17 15:46:59;;;;;;;5.50;3.53;;;;;;;;;;6307302;28;20083;-72
2022/07/17 15:50:02;;;;;;;8.10;3.90;;;;;;;;;;6311009;28;20089;-72
2022/07/17 15:53:04;;;;;;;4.63;3.95;;;;;;;;;;6310678;28;20473;-71
2022/07/17 15:56:05;;;;;;;4.32;3.80;;;;;;;;;;6310913;28;20056;-70
2022/07/17 15:59:07;;;;;;;8.65;4.25;;;;;;;;;;6310645;28;21339;-70
2022/07/17 16:02:09;;;;;;;9.27;4.45;;;;;;;;;;6314501;28;21909;-73
2022/07/17 16:05:12;;;;;;;4.45;4.05;;;;;;;;;;6309621;28;20055;-71
2022/07/17 16:08:13;;;;;;;5.32;3.67;;;;;;;;;;6313406;28;20048;-71
2022/07/17 16:11:15;;;;;;;5.68;4.05;;;;;;;;;;6314952;28;20059;-70
2022/07/17 16:14:16;;;;;;;7.15;3.70;;;;;;;;;;6311515;28;20327;-70
2022/07/17 16:17:18;;;;;;;8.10;4.70;;;;;;;;;;6314255;28;20055;-70
2022/07/17 16:20:21;;;;;;;5.55;4.60;;;;;;;;;;6312830;28;21263;-69
2022/07/17 16:23:24;;;;;;;6.50;3.78;;;;;;;;;;6316195;28;20047;-72
2022/07/17 16:26:25;;;;;;;4.97;4.03;;;;;;;;;;6315837;28;20243;-72
2022/07/17 16:29:27;;;;;;;5.22;4.15;;;;;;;;;;6312228;28;20051;-69
2022/07/17 16:32:29;;;;;;;4.67;3.97;;;;;;;;;;6312667;28;20044;-72
2022/07/17 16:35:32;;;;;;;5.60;4.47;;;;;;;;;;6317624;28;20097;-69
2022/07/17 16:38:33;;;;;;;7.30;4.20;;;;;;;;;;6314576;28;20056;-70
2022/07/17 16:41:35;;;;;;;6.97;4.70;;;;;;;;;;6315256;28;20341;-69
2022/07/17 16:44:37;;;;;;;9.00;4.40;;;;;;;;;;6316254;28;20440;-70
2022/07/17 16:47:38;;;;;;;4.73;4.03;;;;;;;;;;6318374;28;20044;-70
2022/07/17 16:50:43;;;;;;;7.37;4.03;;;;;;;;;;6316188;28;20059;-70
2022/07/17 16:53:45;;;;;;;5.28;4.28;;;;;;;;;;6309853;28;20215;-72
2022/07/17 16:56:47;;;;;;;6.23;4.60;;;;;;;;;;6312713;28;20048;-69
2022/07/17 16:59:48;;;;;;;6.47;4.80;;;;;;;;;;6313803;28;20059;-69
2022/07/17 17:02:50;;;;;;;8.32;4.10;;;;;;;;;;6314578;28;20154;-69
2022/07/17 17:05:53;;;;;;;5.22;4.57;;;;;;;;;;6311534;28;20274;-73
2022/07/17 17:08:55;;;;;;;8.30;4.30;;;;;;;;;;6309958;28;20105;-73
2022/07/17 17:11:56;;;;;;;6.30;4.43;;;;;;;;;;6310924;28;20772;-73
2022/07/17 17:14:58;;;;;;;6.47;4.00;;;;;;;;;;6309943;28;20071;-69
2022/07/17 17:18:00;;;;;;;9.23;4.73;;;;;;;;;;6313102;28;20327;-70
2022/07/17 17:21:03;;;;;;;5.80;4.53;;;;;;;;;;6308733;28;20052;-69
2022/07/17 17:24:05;;;;;;;6.47;4.68;;;;;;;;;;6311888;28;20100;-74
2022/07/17 17:27:07;;;;;;;6.07;4.80;;;;;;;;;;6308702;28;20364;-69
2022/07/17 17:30:10;;;;;;;6.55;4.95;;;;;;;;;;6311606;28;20249;-73
2022/07/17 17:33:11;;;;;;;6.03;4.35;;;;;;;;;;6322173;28;20322;-71
2022/07/17 17:36:14;;;;;;;11.77;5.18;;;;;;;;;;6323067;28;20059;-70
2022/07/17 17:39:16;;;;;;;7.03;4.25;;;;;;;;;;6321384;28;20319;-71
2022/07/17 17:42:18;;;;;;;7.70;4.65;;;;;;;;;;6321181;28;20056;-71
2022/07/17 17:45:19;;;;;;;5.20;4.65;;;;;;;;;;6319596;28;20052;-70
2022/07/17 17:48:21;;;;;;;7.13;4.93;;;;;;;;;;6325667;28;20051;-70
2022/07/17 17:51:24;;;;;;;6.40;4.63;;;;;;;;;;6329048;28;20048;-69
2022/07/17 17:54:26;;;;;;;7.88;4.90;;;;;;;;;;6316561;28;20375;-71
2022/07/17 17:57:27;;;;;;;6.22;4.57;;;;;;;;;;6315311;28;20086;-68
2022/07/17 18:00:29;;;;;;;6.32;4.70;;;;;;;;;;6316696;28;20055;-68
2022/07/17 18:03:31;;;;;;;4.87;4.40;;;;;;;;;;6317430;28;20046;-70
2022/07/17 18:06:35;;;;;;;5.53;4.33;;;;;;;;;;6320828;28;20052;-70
2022/07/17 18:09:37;;;;;;;5.53;4.63;;;;;;;;;;6325867;28;20055;-70
2022/07/17 18:12:40;;;;;;;6.05;4.53;;;;;;;;;;6324001;28;20067;-69
2022/07/17 18:15:42;;;;;;;6.22;4.50;;;;;;;;;;6324631;28;20060;-71
2022/07/17 18:18:44;;;;;;;7.88;4.78;;;;;;;;;;6324995;28;20048;-69